• Join FlightAware (Why Join?)
  • Login
  • US Flag 
05:11AM EDT


 

Airport Tracker/Info


-or-


 

Live Flight TrackerFlight Track Log ✈ AAL2345 ✈ 20-Apr-2013 ✈ KORD - KDFW

Flight Track Log - Related Links

Times and Time Zones

All times are in EDT time to prevent confusion due to time zone crossing. See the AAL2345 flight status page for this flight to view local times or setup timezone preferences in your user account.

Time Position Orientation Groundspeed Altitude Reporting Facility
EDT Latitude Longitude Course Direction KTS MPH feet Rate Location/Type
06:57PM 42.0069 -87.8822 194° South 162 186 34,000  Level Chicago Center
06:58PM 41.9842 -87.8461 130° Southeast 218 251 4,200 -14,100 Descending Chicago Center
06:59PM 41.7658 -88.1621 201° Southwest  Level Estimated
06:59PM 41.9031 -87.8428 178° South 240 276 5,100  Level Chicago Center
07:00PM 41.6754 -88.1191 160° South  Level FlightAware Approximate
07:00PM 41.8419 -87.8969 213° Southwest 259 298 7,300  Level Chicago Center
07:01PM 41.6038 -88.2045 197° South  Level Estimated
07:01PM 41.7756 -87.9425 207° Southwest 269 310 10,800  Level Chicago Center
07:02PM 41.5321 -88.2897 194° South  Level Estimated
07:02PM 41.7017 -87.9922 207° Southwest 296 341 13,200  Level Chicago Center
07:03PM 41.6125 -88.0481 205° Southwest 352 405 15,300 2,220 Climbing Chicago Center
07:04PM 41.5211 -88.1050 205° Southwest 366 421 17,800 2,580 Climbing Chicago Center
07:05PM 41.4131 -88.1733 205° Southwest 373 429 20,600 2,400 Climbing Chicago Center
07:06PM 41.3108 -88.2225 200° South 400 460 22,800 2,040 Climbing Chicago Center
07:07PM 41.2067 -88.2694 199° South 400 460 24,800 1,860 Climbing Chicago Center
07:08PM 41.1000 -88.3186 199° South 406 467 26,700 1,560 Climbing Chicago Center
07:09PM 40.9914 -88.3683 199° South 414 476 28,100 1,500 Climbing Chicago Center
07:10PM 40.8572 -88.4275 198° South 425 489 29,800 1,560 Climbing Chicago Center
07:11PM 40.7461 -88.4775 199° South 425 489 31,400 1,020 Climbing Chicago Center
07:12PM 40.6367 -88.5244 198° South 417 480 32,000 600 Climbing Chicago Center
07:13PM 40.5289 -88.5714 198° South 410 472 32,700 720 Climbing Chicago Center
07:14PM 40.4275 -88.6183 199° South 409 471 33,500 600 Climbing Chicago Center
07:15PM 40.3192 -88.6689 200° South 414 476 34,000 240 Climbing Chicago Center
07:16PM 40.2317 -88.7558 217° Southwest 397 457 34,000  Level Chicago Center
07:17PM 40.1447 -88.8447 218° Southwest 395 455 34,000  Level Chicago Center
07:18PM 40.0400 -88.9517 218° Southwest 396 456 34,000  Level Chicago Center
07:19PM 39.9519 -89.0417 218° Southwest 401 461 34,000  Level Chicago Center
07:20PM 39.8661 -89.1308 219° Southwest 395 455 34,000  Level Chicago Center
07:21PM 39.7800 -89.2175 218° Southwest 393 452 34,000  Level Chicago Center
07:22PM 39.6950 -89.3022 217° Southwest 389 448 34,000  Level Kansas City Center
07:23PM 39.5944 -89.4056 218° Southwest 390 449 34,000  Level Kansas City Center
07:25PM 39.5081 -89.4914 217° Southwest 391 450 34,000  Level Kansas City Center
07:26PM 39.4228 -89.5783 218° Southwest 391 450 34,000  Level Kansas City Center
07:27PM 39.3369 -89.6642 218° Southwest 390 449 34,000  Level Kansas City Center
07:28PM 39.2508 -89.7503 218° Southwest 391 450 34,000  Level Kansas City Center
07:29PM 39.1564 -89.8447 218° Southwest 394 453 34,000  Level Kansas City Center
07:30PM 39.0619 -89.9375 217° Southwest 397 457 34,000  Level Kansas City Center
07:31PM 38.9922 -90.0097 219° Southwest 392 451 34,000  Level Kansas City Center
07:32PM 38.9164 -90.1164 228° Southwest 382 440 34,000  Level Kansas City Center
07:33PM 38.8425 -90.2172 227° Southwest 385 443 34,000  Level Kansas City Center
07:34PM 38.7536 -90.3386 227° Southwest 387 445 34,000  Level Kansas City Center
07:35PM 38.6792 -90.4378 226° Southwest 386 444 34,000  Level Kansas City Center
07:36PM 38.6050 -90.5375 226° Southwest 385 443 34,000  Level Kansas City Center
07:37PM 38.5308 -90.6375 227° Southwest 384 442 34,000  Level Kansas City Center
07:38PM 38.4556 -90.7386 226° Southwest 385 443 34,000  Level Kansas City Center
07:39PM 38.3808 -90.8394 227° Southwest 391 450 34,000  Level Kansas City Center
07:40PM 38.3069 -90.9383 226° Southwest 387 445 34,000  Level Kansas City Center
07:41PM 38.2328 -91.0369 226° Southwest 386 444 34,000  Level Kansas City Center
07:42PM 38.1564 -91.1367 226° Southwest 388 447 34,000  Level Kansas City Center
07:43PM 38.0847 -91.2356 227° Southwest 384 442 34,000  Level Kansas City Center
07:44PM 38.0067 -91.3350 225° Southwest 390 449 34,000  Level Kansas City Center
07:45PM 37.9150 -91.4556 226° Southwest 393 452 34,000  Level Kansas City Center
07:46PM 37.8392 -91.5550 226° Southwest 392 451 34,000  Level Kansas City Center
07:47PM 37.7633 -91.6561 227° Southwest 392 451 34,000  Level Kansas City Center
07:48PM 37.6869 -91.7547 226° Southwest 391 450 34,000  Level Kansas City Center
07:49PM 37.6117 -91.8533 226° Southwest 388 447 34,000  Level Kansas City Center
07:50PM 37.5361 -91.9531 226° Southwest 388 447 34,000  Level Kansas City Center
07:51PM 37.4586 -92.0483 224° Southwest 387 445 34,000  Level Kansas City Center
07:52PM 37.3767 -92.1381 221° Southwest 387 445 34,000  Level Kansas City Center
07:53PM 37.2942 -92.2300 222° Southwest 391 450 34,000  Level Kansas City Center
07:54PM 37.2131 -92.3208 222° Southwest 390 449 34,000  Level Kansas City Center
07:55PM 37.1322 -92.4108 222° Southwest 388 447 34,000  Level Kansas City Center
07:56PM 37.0503 -92.5003 221° Southwest 388 447 34,000  Level Kansas City Center
07:57PM 36.9681 -92.5906 221° Southwest 390 449 34,000  Level Kansas City Center
07:58PM 36.8861 -92.6789 221° Southwest 389 448 34,000  Level Kansas City Center
07:59PM 36.7897 -92.7844 221° Southwest 395 455 34,000  Level Memphis Center
08:00PM 36.7064 -92.8750 221° Southwest 395 455 34,000  Level Memphis Center
08:01PM 36.6275 -92.9631 222° Southwest 395 455 34,000  Level Memphis Center
08:02PM 36.5467 -93.0483 220° Southwest 395 455 34,000  Level Memphis Center
08:03PM 36.4656 -93.1361 221° Southwest 395 455 34,000  Level Memphis Center
08:04PM 36.3778 -93.2283 220° Southwest 395 455 34,000  Level Memphis Center
08:05PM 36.2967 -93.3131 220° Southwest 389 448 34,000  Level Memphis Center
08:06PM 36.2175 -93.3978 221° Southwest 389 448 34,000  Level Memphis Center
08:07PM 36.1403 -93.4822 221° Southwest 382 440 34,000  Level Memphis Center
08:08PM 36.0611 -93.5639 220° Southwest 376 433 34,000  Level Memphis Center
08:09PM 35.9839 -93.6481 221° Southwest 376 433 34,000  Level Memphis Center
08:10PM 35.9044 -93.7294 220° Southwest 376 433 34,000  Level Memphis Center
08:11PM 35.8250 -93.8133 221° Southwest 376 433 34,000  Level Memphis Center
08:12PM 35.7456 -93.8994 221° Southwest 376 433 34,000  Level Memphis Center
08:13PM 35.6617 -93.9853 220° Southwest 376 433 34,000  Level Memphis Center
08:14PM 35.5822 -94.0686 220° Southwest 376 433 34,000  Level Memphis Center
08:15PM 35.5025 -94.1519 220° Southwest 376 433 34,000  Level Memphis Center
08:16PM 35.4206 -94.2372 220° Southwest 381 438 34,000  Level Memphis Center
08:17PM 35.3408 -94.3200 220° Southwest 381 438 34,000  Level Memphis Center
08:18PM 35.2608 -94.4078 222° Southwest 381 438 34,000  Level Memphis Center
08:20PM 35.1094 -94.5761 222° Southwest 363 418 34,000  Level Fort Worth Center
08:21PM 35.0278 -94.6650 222° Southwest 374 430 34,000  Level Fort Worth Center
08:22PM 34.9586 -94.7383 221° Southwest 379 436 34,000  Level Fort Worth Center
08:23PM 34.8689 -94.8347 221° Southwest 388 447 34,000  Level Fort Worth Center
08:24PM 34.7914 -94.9231 223° Southwest 391 450 34,000  Level Fort Worth Center
08:25PM 34.7136 -95.0011 220° Southwest 381 438 34,000  Level Fort Worth Center
08:26PM 34.6358 -95.0867 222° Southwest 381 438 34,000  Level Fort Worth Center
08:27PM 34.5600 -95.1642 220° Southwest 376 433 34,000  Level Fort Worth Center
08:28PM 34.4803 -95.2544 223° Southwest 376 433 34,000 -540 Level Fort Worth Center
08:29PM 34.4022 -95.3319 219° Southwest 376 433 33,000 -1,560 Descending Fort Worth Center
08:30PM 34.3203 -95.4194 221° Southwest 381 438 30,900 -2,280 Descending Fort Worth Center
08:31PM 34.2422 -95.5042 222° Southwest 381 438 28,500 -2,400 Descending Fort Worth Center
08:32PM 34.1581 -95.5889 220° Southwest 391 450 26,200 -2,460 Descending Fort Worth Center
08:33PM 34.0819 -95.6706 222° Southwest 386 444 23,600 -2,520 Descending Fort Worth Center
08:34PM 34.0039 -95.7525 221° Southwest 375 432 21,200 -2,400 Descending Fort Worth Center
08:35PM 33.9256 -95.8339 221° Southwest 382 440 18,800 -2,100 Descending Fort Worth Center
08:36PM 33.8492 -95.9103 220° Southwest 371 427 17,000 -1,620 Descending Fort Worth Center
08:37PM 33.7792 -95.9892 223° Southwest 357 411 15,600 -1,380 Descending Fort Worth Center
08:38PM 33.7069 -96.0603 219° Southwest 352 405 14,300 -1,260 Descending Fort Worth Center
08:39PM 33.6367 -96.1311 220° Southwest 346 398 13,100 -1,260 Descending Fort Worth Center
08:40PM 33.5686 -96.2044 222° Southwest 340 391 11,800 -1,080 Descending Fort Worth Center
08:41PM 33.5003 -96.2775 222° Southwest 334 384 11,000 -420 Descending Fort Worth Center
08:42PM 33.4425 -96.3481 226° Southwest 306 352 11,000  Level Fort Worth Center
08:43PM 33.3889 -96.4133 225° Southwest 288 331 11,000 -720 Level Fort Worth Center
08:44PM 33.3372 -96.4761 225° Southwest 272 313 9,600 -1,440 Descending Fort Worth Center
08:45PM 33.2958 -96.5511 237° Southwest 272 313 8,200 -1,620 Descending Fort Worth Center
08:46PM 33.2567 -96.6233 237° Southwest 267 307 6,400 -1,620 Descending Fort Worth Center
08:47PM 33.2156 -96.6983 237° Southwest 267 307 5,000 -720 Descending Fort Worth Center
08:48PM 33.1761 -96.7731 238° Southwest 267 307 5,000 -420 Level Fort Worth Center
08:49PM 33.1369 -96.8478 238° Southwest 267 307 4,200 -1,020 Descending Fort Worth Center
08:50PM 33.1017 -96.9125 237° Southwest 272 313 3,000 -720 Descending Fort Worth Center
08:51PM 33.0667 -96.9667 232° Southwest 217 250 3,000  Level Dallas / Fort Worth TRACON